sensor_id;sensor_type;location;lat;lon;timestamp;pressure;altitude;pressure_sealevel;temperature;humidity
71889;BME280;59762;49.998;14.858;2022-12-18T00:01:48;98690.00;;;-7.22;100.00
71889;BME280;59762;49.998;14.858;2022-12-18T00:04:20;98703.03;;;-7.23;100.00
71889;BME280;59762;49.998;14.858;2022-12-18T00:06:46;98697.50;;;-7.16;100.00
71889;BME280;59762;49.998;14.858;2022-12-18T00:09:11;98706.41;;;-7.21;100.00
71889;BME280;59762;49.998;14.858;2022-12-18T00:11:37;98715.16;;;-7.24;100.00
71889;BME280;59762;49.998;14.858;2022-12-18T00:14:03;98714.75;;;-7.33;100.00
71889;BME280;59762;49.998;14.858;2022-12-18T00:16:29;98713.34;;;-7.41;100.00
71889;BME280;59762;49.998;14.858;2022-12-18T00:18:59;98716.44;;;-7.51;100.00
71889;BME280;59762;49.998;14.858;2022-12-18T00:21:25;98713.28;;;-7.58;100.00
71889;BME280;59762;49.998;14.858;2022-12-18T00:23:52;98718.75;;;-7.64;100.00
71889;BME280;59762;49.998;14.858;2022-12-18T00:26:38;98720.91;;;-7.55;100.00
71889;BME280;59762;49.998;14.858;2022-12-18T00:29:07;98718.75;;;-7.45;100.00
71889;BME280;59762;49.998;14.858;2022-12-18T00:31:34;98722.13;;;-7.43;100.00
71889;BME280;59762;49.998;14.858;2022-12-18T00:34:00;98719.16;;;-7.54;100.00
71889;BME280;59762;49.998;14.858;2022-12-18T00:36:28;98723.72;;;-7.59;100.00
71889;BME280;59762;49.998;14.858;2022-12-18T00:38:55;98722.81;;;-7.58;100.00
71889;BME280;59762;49.998;14.858;2022-12-18T00:41:22;98724.00;;;-7.66;100.00
71889;BME280;59762;49.998;14.858;2022-12-18T00:44:09;98725.91;;;-7.69;100.00
71889;BME280;59762;49.998;14.858;2022-12-18T00:46:35;98728.47;;;-7.69;100.00
71889;BME280;59762;49.998;14.858;2022-12-18T00:49:01;98728.97;;;-7.61;100.00
71889;BME280;59762;49.998;14.858;2022-12-18T00:51:27;98740.28;;;-7.64;100.00
71889;BME280;59762;49.998;14.858;2022-12-18T00:53:53;98741.22;;;-7.65;100.00
71889;BME280;59762;49.998;14.858;2022-12-18T00:56:22;98747.31;;;-7.66;100.00
71889;BME280;59762;49.998;14.858;2022-12-18T00:58:48;98754.91;;;-7.63;100.00
71889;BME280;59762;49.998;14.858;2022-12-18T01:01:14;98750.34;;;-7.57;100.00
71889;BME280;59762;49.998;14.858;2022-12-18T01:03:40;98758.97;;;-7.57;100.00
71889;BME280;59762;49.998;14.858;2022-12-18T01:06:07;98756.38;;;-7.57;100.00
71889;BME280;59762;49.998;14.858;2022-12-18T01:08:33;98755.06;;;-7.66;100.00
71889;BME280;59762;49.998;14.858;2022-12-18T01:10:58;98757.00;;;-7.71;100.00
71889;BME280;59762;49.998;14.858;2022-12-18T01:13:24;98753.28;;;-7.84;100.00
71889;BME280;59762;49.998;14.858;2022-12-18T01:15:50;98758.94;;;-7.95;100.00
71889;BME280;59762;49.998;14.858;2022-12-18T01:18:16;98756.44;;;-7.96;100.00
71889;BME280;59762;49.998;14.858;2022-12-18T01:20:42;98761.09;;;-8.04;100.00
71889;BME280;59762;49.998;14.858;2022-12-18T01:23:07;98755.75;;;-8.01;100.00
71889;BME280;59762;49.998;14.858;2022-12-18T01:25:35;98761.78;;;-8.01;100.00
71889;BME280;59762;49.998;14.858;2022-12-18T01:28:01;98765.53;;;-7.88;100.00
71889;BME280;59762;49.998;14.858;2022-12-18T01:30:27;98775.38;;;-7.77;100.00
71889;BME280;59762;49.998;14.858;2022-12-18T01:32:53;98784.78;;;-7.74;100.00
71889;BME280;59762;49.998;14.858;2022-12-18T01:35:19;98778.81;;;-7.76;100.00
71889;BME280;59762;49.998;14.858;2022-12-18T01:37:44;98778.69;;;-7.73;100.00
71889;BME280;59762;49.998;14.858;2022-12-18T01:40:10;98775.91;;;-7.69;100.00
71889;BME280;59762;49.998;14.858;2022-12-18T01:42:36;98782.94;;;-7.53;100.00
71889;BME280;59762;49.998;14.858;2022-12-18T01:48:06;98785.78;;;-7.39;100.00
71889;BME280;59762;49.998;14.858;2022-12-18T01:50:35;98793.25;;;-7.33;100.00
71889;BME280;59762;49.998;14.858;2022-12-18T01:55:35;98785.50;;;-7.33;100.00
71889;BME280;59762;49.998;14.858;2022-12-18T01:58:02;98776.69;;;-7.29;100.00
71889;BME280;59762;49.998;14.858;2022-12-18T02:00:29;98775.69;;;-7.26;100.00
71889;BME280;59762;49.998;14.858;2022-12-18T02:02:54;98777.28;;;-7.24;100.00
71889;BME280;59762;49.998;14.858;2022-12-18T02:05:29;98786.47;;;-7.17;100.00
71889;BME280;59762;49.998;14.858;2022-12-18T02:08:09;98801.13;;;-7.17;100.00
71889;BME280;59762;49.998;14.858;2022-12-18T02:10:54;98792.06;;;-7.07;100.00
71889;BME280;59762;49.998;14.858;2022-12-18T02:18:50;98793.06;;;-6.92;100.00
71889;BME280;59762;49.998;14.858;2022-12-18T02:21:44;98802.06;;;-6.82;100.00
71889;BME280;59762;49.998;14.858;2022-12-18T02:24:27;98808.66;;;-6.75;100.00
71889;BME280;59762;49.998;14.858;2022-12-18T02:26:58;98808.66;;;-6.75;100.00
71889;BME280;59762;49.998;14.858;2022-12-18T02:29:29;98808.66;;;-6.75;100.00
71889;BME280;59762;49.998;14.858;2022-12-18T02:32:00;98816.06;;;-6.67;100.00
71889;BME280;59762;49.998;14.858;2022-12-18T02:34:30;98813.63;;;-6.70;100.00
71889;BME280;59762;49.998;14.858;2022-12-18T02:36:59;98816.28;;;-6.72;100.00
71889;BME280;59762;49.998;14.858;2022-12-18T02:39:27;98824.69;;;-6.67;100.00
71889;BME280;59762;49.998;14.858;2022-12-18T02:41:55;98822.09;;;-6.67;100.00
71889;BME280;59762;49.998;14.858;2022-12-18T02:44:20;98822.19;;;-6.68;100.00
71889;BME280;59762;49.998;14.858;2022-12-18T02:46:49;98817.06;;;-6.70;100.00
71889;BME280;59762;49.998;14.858;2022-12-18T02:54:36;98832.06;;;-6.95;100.00
71889;BME280;59762;49.998;14.858;2022-12-18T02:57:16;98831.75;;;-7.06;100.00
71889;BME280;59762;49.998;14.858;2022-12-18T03:00:21;98828.66;;;-7.15;100.00
71889;BME280;59762;49.998;14.858;2022-12-18T03:03:14;98828.88;;;-7.38;100.00
71889;BME280;59762;49.998;14.858;2022-12-18T03:08:26;98821.72;;;-7.33;100.00
71889;BME280;59762;49.998;14.858;2022-12-18T03:10:59;98828.28;;;-7.45;100.00
71889;BME280;59762;49.998;14.858;2022-12-18T03:13:31;98831.97;;;-7.30;100.00
71889;BME280;59762;49.998;14.858;2022-12-18T03:15:59;98826.41;;;-7.41;100.00
71889;BME280;59762;49.998;14.858;2022-12-18T03:18:32;98822.97;;;-7.42;100.00
71889;BME280;59762;49.998;14.858;2022-12-18T03:21:00;98823.41;;;-7.32;100.00
71889;BME280;59762;49.998;14.858;2022-12-18T03:23:32;98828.38;;;-7.27;100.00
71889;BME280;59762;49.998;14.858;2022-12-18T03:26:04;98833.97;;;-7.18;100.00
71889;BME280;59762;49.998;14.858;2022-12-18T03:28:33;98838.94;;;-7.32;100.00
71889;BME280;59762;49.998;14.858;2022-12-18T03:31:01;98838.19;;;-7.34;100.00
71889;BME280;59762;49.998;14.858;2022-12-18T03:33:32;98838.09;;;-7.32;100.00
71889;BME280;59762;49.998;14.858;2022-12-18T03:36:00;98850.13;;;-7.31;100.00
71889;BME280;59762;49.998;14.858;2022-12-18T03:38:26;98847.13;;;-7.41;100.00
71889;BME280;59762;49.998;14.858;2022-12-18T03:41:15;98848.78;;;-7.40;100.00
71889;BME280;59762;49.998;14.858;2022-12-18T03:44:09;98846.47;;;-7.46;100.00
71889;BME280;59762;49.998;14.858;2022-12-18T03:46:42;98853.97;;;-7.40;100.00
71889;BME280;59762;49.998;14.858;2022-12-18T03:49:23;98851.25;;;-7.37;100.00
71889;BME280;59762;49.998;14.858;2022-12-18T03:52:04;98853.09;;;-7.39;100.00
71889;BME280;59762;49.998;14.858;2022-12-18T03:54:33;98849.91;;;-7.27;100.00
71889;BME280;59762;49.998;14.858;2022-12-18T03:57:10;98854.75;;;-7.38;100.00
71889;BME280;59762;49.998;14.858;2022-12-18T03:59:38;98859.94;;;-7.38;100.00
71889;BME280;59762;49.998;14.858;2022-12-18T04:02:06;98863.97;;;-7.51;100.00
71889;BME280;59762;49.998;14.858;2022-12-18T04:04:35;98871.22;;;-7.39;100.00
71889;BME280;59762;49.998;14.858;2022-12-18T04:07:03;98876.06;;;-7.52;100.00
71889;BME280;59762;49.998;14.858;2022-12-18T04:09:31;98869.16;;;-7.51;100.00
71889;BME280;59762;49.998;14.858;2022-12-18T04:11:57;98880.34;;;-7.51;100.00
71889;BME280;59762;49.998;14.858;2022-12-18T04:14:23;98880.47;;;-7.54;100.00
71889;BME280;59762;49.998;14.858;2022-12-18T04:16:48;98882.59;;;-7.43;100.00
71889;BME280;59762;49.998;14.858;2022-12-18T04:19:14;98877.31;;;-7.60;100.00
71889;BME280;59762;49.998;14.858;2022-12-18T04:21:40;98870.81;;;-7.50;100.00
71889;BME280;59762;49.998;14.858;2022-12-18T04:24:06;98870.94;;;-7.53;100.00
71889;BME280;59762;49.998;14.858;2022-12-18T04:26:31;98874.56;;;-7.37;100.00
71889;BME280;59762;49.998;14.858;2022-12-18T04:28:57;98872.56;;;-7.51;100.00
71889;BME280;59762;49.998;14.858;2022-12-18T04:31:23;98875.59;;;-7.62;100.00
71889;BME280;59762;49.998;14.858;2022-12-18T04:33:48;98890.88;;;-7.76;100.00
71889;BME280;59762;49.998;14.858;2022-12-18T04:36:14;98879.72;;;-7.76;100.00
71889;BME280;59762;49.998;14.858;2022-12-18T04:38:40;98887.09;;;-7.88;100.00
71889;BME280;59762;49.998;14.858;2022-12-18T04:41:05;98898.13;;;-7.84;100.00
71889;BME280;59762;49.998;14.858;2022-12-18T04:43:31;98898.00;;;-7.81;100.00
71889;BME280;59762;49.998;14.858;2022-12-18T04:46:06;98897.63;;;-7.92;100.00
71889;BME280;59762;49.998;14.858;2022-12-18T04:48:32;98893.69;;;-7.80;100.00
71889;BME280;59762;49.998;14.858;2022-12-18T04:50:58;98896.38;;;-7.63;100.00
71889;BME280;59762;49.998;14.858;2022-12-18T04:53:24;98896.50;;;-7.66;100.00
71889;BME280;59762;49.998;14.858;2022-12-18T04:55:50;98899.44;;;-7.74;100.00
71889;BME280;59762;49.998;14.858;2022-12-18T04:58:16;98906.75;;;-7.83;100.00
71889;BME280;59762;49.998;14.858;2022-12-18T05:00:41;98891.03;;;-7.79;100.00
71889;BME280;59762;49.998;14.858;2022-12-18T05:03:07;98890.25;;;-7.81;100.00
71889;BME280;59762;49.998;14.858;2022-12-18T05:05:34;98892.19;;;-7.86;100.00
71889;BME280;59762;49.998;14.858;2022-12-18T05:08:01;98889.94;;;-7.73;100.00
71889;BME280;59762;49.998;14.858;2022-12-18T05:10:26;98894.13;;;-7.71;100.00
71889;BME280;59762;49.998;14.858;2022-12-18T05:12:52;98897.75;;;-7.75;100.00
71889;BME280;59762;49.998;14.858;2022-12-18T05:15:27;98907.63;;;-7.84;100.00
71889;BME280;59762;49.998;14.858;2022-12-18T05:17:53;98913.28;;;-7.95;100.00
71889;BME280;59762;49.998;14.858;2022-12-18T05:20:18;98914.81;;;-7.91;100.00
71889;BME280;59762;49.998;14.858;2022-12-18T05:22:44;98910.63;;;-7.94;100.00
71889;BME280;59762;49.998;14.858;2022-12-18T05:25:10;98916.44;;;-7.89;100.00
71889;BME280;59762;49.998;14.858;2022-12-18T05:27:35;98928.94;;;-7.78;100.00
71889;BME280;59762;49.998;14.858;2022-12-18T05:30:01;98932.47;;;-7.80;100.00
71889;BME280;59762;49.998;14.858;2022-12-18T05:32:26;98927.25;;;-7.79;100.00
71889;BME280;59762;49.998;14.858;2022-12-18T05:34:52;98923.34;;;-7.89;100.00
71889;BME280;59762;49.998;14.858;2022-12-18T05:37:18;98939.94;;;-7.73;100.00
71889;BME280;59762;49.998;14.858;2022-12-18T05:39:43;98941.78;;;-7.97;100.00
71889;BME280;59762;49.998;14.858;2022-12-18T05:42:09;98953.53;;;-8.10;100.00
71889;BME280;59762;49.998;14.858;2022-12-18T05:44:35;98952.00;;;-8.16;100.00
71889;BME280;59762;49.998;14.858;2022-12-18T05:47:00;98952.84;;;-7.93;100.00
71889;BME280;59762;49.998;14.858;2022-12-18T05:49:26;98955.25;;;-8.10;100.00
71889;BME280;59762;49.998;14.858;2022-12-18T05:51:52;98956.06;;;-8.08;100.00
71889;BME280;59762;49.998;14.858;2022-12-18T05:54:17;98952.84;;;-8.15;100.00
71889;BME280;59762;49.998;14.858;2022-12-18T05:56:43;98959.41;;;-8.28;100.00
71889;BME280;59762;49.998;14.858;2022-12-18T05:59:09;98961.59;;;-8.18;100.00
71889;BME280;59762;49.998;14.858;2022-12-18T06:01:35;98958.75;;;-8.12;100.00
71889;BME280;59762;49.998;14.858;2022-12-18T06:04:00;98956.28;;;-8.15;100.00
71889;BME280;59762;49.998;14.858;2022-12-18T06:06:27;98947.88;;;-8.20;100.00
71889;BME280;59762;49.998;14.858;2022-12-18T06:08:54;98953.47;;;-8.30;100.00
71889;BME280;59762;49.998;14.858;2022-12-18T06:11:25;98954.97;;;-8.25;100.00
71889;BME280;59762;49.998;14.858;2022-12-18T06:13:52;98949.41;;;-8.36;100.00
71889;BME280;59762;49.998;14.858;2022-12-18T06:16:19;98954.84;;;-8.22;100.00
71889;BME280;59762;49.998;14.858;2022-12-18T06:18:44;98971.94;;;-8.18;100.00
71889;BME280;59762;49.998;14.858;2022-12-18T06:21:10;98972.66;;;-8.14;100.00
71889;BME280;59762;49.998;14.858;2022-12-18T06:23:36;98963.88;;;-8.10;100.00
71889;BME280;59762;49.998;14.858;2022-12-18T06:26:09;98971.84;;;-7.94;100.00
71889;BME280;59762;49.998;14.858;2022-12-18T06:28:34;98980.72;;;-7.79;100.00
71889;BME280;59762;49.998;14.858;2022-12-18T06:31:02;98977.84;;;-7.94;100.00
71889;BME280;59762;49.998;14.858;2022-12-18T06:33:28;98984.47;;;-7.87;100.00
71889;BME280;59762;49.998;14.858;2022-12-18T06:35:54;98979.78;;;-7.99;100.00
71889;BME280;59762;49.998;14.858;2022-12-18T06:38:24;98988.38;;;-7.98;100.00
71889;BME280;59762;49.998;14.858;2022-12-18T06:40:50;99002.31;;;-8.01;100.00
71889;BME280;59762;49.998;14.858;2022-12-18T06:43:15;98993.56;;;-7.98;100.00
71889;BME280;59762;49.998;14.858;2022-12-18T06:45:41;98994.41;;;-7.98;100.00
71889;BME280;59762;49.998;14.858;2022-12-18T06:48:07;98999.47;;;-7.95;100.00
71889;BME280;59762;49.998;14.858;2022-12-18T06:50:33;99001.38;;;-8.00;100.00
71889;BME280;59762;49.998;14.858;2022-12-18T06:52:59;99003.78;;;-8.17;100.00
71889;BME280;59762;49.998;14.858;2022-12-18T06:55:25;99012.38;;;-8.17;100.00
71889;BME280;59762;49.998;14.858;2022-12-18T06:57:50;99012.97;;;-7.88;100.00
71889;BME280;59762;49.998;14.858;2022-12-18T07:00:16;99020.50;;;-8.04;100.00
71889;BME280;59762;49.998;14.858;2022-12-18T07:02:42;99020.03;;;-7.92;100.00
71889;BME280;59762;49.998;14.858;2022-12-18T07:05:08;99028.19;;;-8.02;100.00
71889;BME280;59762;49.998;14.858;2022-12-18T07:07:34;99019.69;;;-8.04;100.00
71889;BME280;59762;49.998;14.858;2022-12-18T07:10:00;99024.22;;;-7.89;100.00
71889;BME280;59762;49.998;14.858;2022-12-18T07:12:29;99031.81;;;-7.84;100.00
71889;BME280;59762;49.998;14.858;2022-12-18T07:14:55;99039.72;;;-7.88;100.00
71889;BME280;59762;49.998;14.858;2022-12-18T07:17:20;99035.53;;;-7.70;100.00
71889;BME280;59762;49.998;14.858;2022-12-18T07:19:46;99046.13;;;-7.76;100.00
71889;BME280;59762;49.998;14.858;2022-12-18T07:22:11;99048.47;;;-7.70;100.00
71889;BME280;59762;49.998;14.858;2022-12-18T07:24:37;99046.81;;;-7.50;100.00
71889;BME280;59762;49.998;14.858;2022-12-18T07:27:03;99050.31;;;-7.51;100.00
71889;BME280;59762;49.998;14.858;2022-12-18T07:29:28;99056.34;;;-7.51;100.00
71889;BME280;59762;49.998;14.858;2022-12-18T07:31:54;99064.56;;;-7.41;100.00
71889;BME280;59762;49.998;14.858;2022-12-18T07:34:20;99052.84;;;-7.72;100.00
71889;BME280;59762;49.998;14.858;2022-12-18T07:36:45;99057.56;;;-7.59;100.00
71889;BME280;59762;49.998;14.858;2022-12-18T07:39:11;99054.97;;;-7.81;100.00
71889;BME280;59762;49.998;14.858;2022-12-18T07:41:37;99059.25;;;-7.80;100.00
71889;BME280;59762;49.998;14.858;2022-12-18T07:44:03;99064.66;;;-7.65;100.00
71889;BME280;59762;49.998;14.858;2022-12-18T07:46:28;99076.16;;;-7.72;100.00
71889;BME280;59762;49.998;14.858;2022-12-18T07:48:54;99070.75;;;-7.45;100.00
71889;BME280;59762;49.998;14.858;2022-12-18T07:51:19;99086.56;;;-7.51;100.00
71889;BME280;59762;49.998;14.858;2022-12-18T07:53:45;99088.97;;;-7.47;100.00
71889;BME280;59762;49.998;14.858;2022-12-18T07:56:12;99091.59;;;-7.48;100.00
71889;BME280;59762;49.998;14.858;2022-12-18T07:58:38;99093.72;;;-7.16;100.00
71889;BME280;59762;49.998;14.858;2022-12-18T08:01:07;99100.03;;;-7.43;100.00
71889;BME280;59762;49.998;14.858;2022-12-18T08:03:33;99099.00;;;-7.39;100.00
71889;BME280;59762;49.998;14.858;2022-12-18T08:06:00;99096.03;;;-7.30;100.00
71889;BME280;59762;49.998;14.858;2022-12-18T08:08:27;99100.97;;;-7.24;100.00
71889;BME280;59762;49.998;14.858;2022-12-18T08:10:53;99091.03;;;-7.13;100.00
71889;BME280;59762;49.998;14.858;2022-12-18T08:13:18;99093.13;;;-7.22;100.00
71889;BME280;59762;49.998;14.858;2022-12-18T08:15:44;99090.22;;;-7.15;100.00
71889;BME280;59762;49.998;14.858;2022-12-18T08:18:09;99094.63;;;-7.17;100.00
71889;BME280;59762;49.998;14.858;2022-12-18T08:20:36;99092.03;;;-7.17;100.00
71889;BME280;59762;49.998;14.858;2022-12-18T08:23:02;99091.59;;;-6.86;100.00
71889;BME280;59762;49.998;14.858;2022-12-18T08:25:28;99095.53;;;-6.97;100.00
71889;BME280;59762;49.998;14.858;2022-12-18T08:27:53;99089.91;;;-7.07;100.00
71889;BME280;59762;49.998;14.858;2022-12-18T08:30:20;99087.16;;;-7.04;100.00
71889;BME280;59762;49.998;14.858;2022-12-18T08:32:46;99087.31;;;-7.07;100.00
71889;BME280;59762;49.998;14.858;2022-12-18T08:35:11;99092.53;;;-7.29;100.00
71889;BME280;59762;49.998;14.858;2022-12-18T08:37:37;99092.97;;;-7.40;100.00
71889;BME280;59762;49.998;14.858;2022-12-18T08:40:03;99097.59;;;-7.26;100.00
71889;BME280;59762;49.998;14.858;2022-12-18T08:42:29;99095.28;;;-7.12;100.00
71889;BME280;59762;49.998;14.858;2022-12-18T08:45:13;99100.19;;;-7.05;100.00
71889;BME280;59762;49.998;14.858;2022-12-18T08:47:39;99096.91;;;-6.89;100.00
71889;BME280;59762;49.998;14.858;2022-12-18T08:50:04;99104.41;;;-6.82;100.00
71889;BME280;59762;49.998;14.858;2022-12-18T08:52:32;99098.84;;;-6.94;100.00
71889;BME280;59762;49.998;14.858;2022-12-18T08:54:57;99097.81;;;-6.90;100.00
71889;BME280;59762;49.998;14.858;2022-12-18T08:57:23;99095.09;;;-7.07;100.00
71889;BME280;59762;49.998;14.858;2022-12-18T08:59:48;99100.66;;;-6.96;100.00
71889;BME280;59762;49.998;14.858;2022-12-18T09:02:14;99102.84;;;-7.07;100.00
71889;BME280;59762;49.998;14.858;2022-12-18T09:04:40;99093.88;;;-6.98;100.00
71889;BME280;59762;49.998;14.858;2022-12-18T09:07:05;99084.50;;;-6.82;100.00
71889;BME280;59762;49.998;14.858;2022-12-18T09:09:31;99080.22;;;-6.63;100.00
71889;BME280;59762;49.998;14.858;2022-12-18T09:11:57;99077.19;;;-7.33;100.00
71889;BME280;59762;49.998;14.858;2022-12-18T09:14:22;99086.03;;;-7.59;100.00
71889;BME280;59762;49.998;14.858;2022-12-18T09:16:48;99080.50;;;-7.30;100.00
71889;BME280;59762;49.998;14.858;2022-12-18T09:19:14;99087.09;;;-7.23;100.00
71889;BME280;59762;49.998;14.858;2022-12-18T09:21:40;99095.19;;;-7.30;100.00
71889;BME280;59762;49.998;14.858;2022-12-18T09:24:06;99101.22;;;-7.09;100.00
71889;BME280;59762;49.998;14.858;2022-12-18T09:26:31;99103.69;;;-7.06;100.00
71889;BME280;59762;49.998;14.858;2022-12-18T09:28:57;99100.91;;;-7.02;100.00
71889;BME280;59762;49.998;14.858;2022-12-18T09:31:24;99094.78;;;-6.99;100.00
71889;BME280;59762;49.998;14.858;2022-12-18T09:33:50;99090.94;;;-6.91;100.00
71889;BME280;59762;49.998;14.858;2022-12-18T09:36:17;99088.47;;;-6.94;100.00
71889;BME280;59762;49.998;14.858;2022-12-18T09:38:43;99090.66;;;-7.05;100.00
71889;BME280;59762;49.998;14.858;2022-12-18T09:41:30;99083.75;;;-7.25;100.00
71889;BME280;59762;49.998;14.858;2022-12-18T09:44:05;99088.53;;;-6.95;100.00
71889;BME280;59762;49.998;14.858;2022-12-18T09:46:39;99092.03;;;-6.76;100.00
71889;BME280;59762;49.998;14.858;2022-12-18T09:49:12;99082.44;;;-7.57;100.00
71889;BME280;59762;49.998;14.858;2022-12-18T09:51:49;99095.22;;;-7.52;100.00
71889;BME280;59762;49.998;14.858;2022-12-18T09:54:22;99098.69;;;-7.53;100.00
71889;BME280;59762;49.998;14.858;2022-12-18T09:56:48;99100.97;;;-7.24;100.00
71889;BME280;59762;49.998;14.858;2022-12-18T09:59:25;99110.56;;;-7.05;100.00
71889;BME280;59762;49.998;14.858;2022-12-18T10:01:51;99113.16;;;-7.05;100.00
71889;BME280;59762;49.998;14.858;2022-12-18T10:04:17;99107.34;;;-6.90;100.00
71889;BME280;59762;49.998;14.858;2022-12-18T10:06:56;99104.78;;;-6.71;100.00
71889;BME280;59762;49.998;14.858;2022-12-18T10:09:33;99111.84;;;-6.75;100.00
71889;BME280;59762;49.998;14.858;2022-12-18T10:19:42;99124.72;;;-6.14;100.00
71889;BME280;59762;49.998;14.858;2022-12-18T10:22:39;99122.88;;;-6.12;100.00
71889;BME280;59762;49.998;14.858;2022-12-18T10:25:28;99123.66;;;-6.28;100.00
71889;BME280;59762;49.998;14.858;2022-12-18T10:27:58;99113.13;;;-6.25;100.00
71889;BME280;59762;49.998;14.858;2022-12-18T10:30:26;99122.88;;;-6.12;100.00
71889;BME280;59762;49.998;14.858;2022-12-18T10:32:52;99121.09;;;-5.73;100.00
71889;BME280;59762;49.998;14.858;2022-12-18T10:35:24;99119.84;;;-5.65;100.00
71889;BME280;59762;49.998;14.858;2022-12-18T10:38:06;99097.00;;;-5.94;100.00
71889;BME280;59762;49.998;14.858;2022-12-18T10:40:48;99106.56;;;-6.14;100.00
71889;BME280;59762;49.998;14.858;2022-12-18T10:43:15;99099.41;;;-6.27;100.00
71889;BME280;59762;49.998;14.858;2022-12-18T10:46:34;99089.53;;;-6.00;100.00
71889;BME280;59762;49.998;14.858;2022-12-18T10:51:25;99070.38;;;-6.36;100.00
71889;BME280;59762;49.998;14.858;2022-12-18T10:53:57;99061.97;;;-6.41;100.00
71889;BME280;59762;49.998;14.858;2022-12-18T10:56:27;99057.44;;;-6.95;100.00
71889;BME280;59762;49.998;14.858;2022-12-18T10:58:59;99049.94;;;-7.01;100.00
71889;BME280;59762;49.998;14.858;2022-12-18T11:01:25;99051.69;;;-6.81;100.00
71889;BME280;59762;49.998;14.858;2022-12-18T11:06:23;99052.00;;;-7.09;100.00
71889;BME280;59762;49.998;14.858;2022-12-18T11:09:01;99053.59;;;-7.26;100.00
71889;BME280;59762;49.998;14.858;2022-12-18T11:11:28;99039.81;;;-6.87;100.00
71889;BME280;59762;49.998;14.858;2022-12-18T11:14:12;99035.91;;;-7.16;100.00
71889;BME280;59762;49.998;14.858;2022-12-18T11:16:49;99036.28;;;-6.84;100.00
71889;BME280;59762;49.998;14.858;2022-12-18T11:19:34;99051.41;;;-6.75;100.00
71889;BME280;59762;49.998;14.858;2022-12-18T11:22:03;99048.50;;;-7.08;100.00
71889;BME280;59762;49.998;14.858;2022-12-18T11:24:43;99041.97;;;-7.17;100.00
71889;BME280;59762;49.998;14.858;2022-12-18T11:27:18;99034.91;;;-6.93;100.00
71889;BME280;59762;49.998;14.858;2022-12-18T11:29:44;99033.63;;;-6.64;100.00
71889;BME280;59762;49.998;14.858;2022-12-18T11:37:29;99036.03;;;-6.59;100.00
71889;BME280;59762;49.998;14.858;2022-12-18T11:39:59;99044.69;;;-6.79;100.00
71889;BME280;59762;49.998;14.858;2022-12-18T11:42:45;99053.16;;;-6.76;100.00
71889;BME280;59762;49.998;14.858;2022-12-18T11:50:32;99052.16;;;-6.73;100.00
71889;BME280;59762;49.998;14.858;2022-12-18T11:52:59;99043.06;;;-6.82;100.00
71889;BME280;59762;49.998;14.858;2022-12-18T11:55:37;99045.28;;;-6.93;100.00
71889;BME280;59762;49.998;14.858;2022-12-18T12:14:29;99035.75;;;-6.53;100.00
71889;BME280;59762;49.998;14.858;2022-12-18T12:17:22;99039.81;;;-6.67;100.00
71889;BME280;59762;49.998;14.858;2022-12-18T12:20:00;99054.75;;;-6.73;100.00
71889;BME280;59762;49.998;14.858;2022-12-18T12:22:40;99050.84;;;-7.02;100.00
71889;BME280;59762;49.998;14.858;2022-12-18T12:25:25;99047.16;;;-6.76;100.00
71889;BME280;59762;49.998;14.858;2022-12-18T12:28:36;99054.34;;;-6.83;100.00
71889;BME280;59762;49.998;14.858;2022-12-18T12:31:05;99052.16;;;-6.73;100.00
71889;BME280;59762;49.998;14.858;2022-12-18T12:33:44;99058.13;;;-6.90;100.00
71889;BME280;59762;49.998;14.858;2022-12-18T12:36:52;99054.47;;;-7.27;100.00
71889;BME280;59762;49.998;14.858;2022-12-18T12:39:28;99043.66;;;-7.37;100.00
71889;BME280;59762;49.998;14.858;2022-12-18T12:41:56;99047.63;;;-7.28;100.00
71889;BME280;59762;49.998;14.858;2022-12-18T12:44:45;99048.91;;;-7.18;100.00
71889;BME280;59762;49.998;14.858;2022-12-18T12:47:17;99053.44;;;-7.02;100.00
71889;BME280;59762;49.998;14.858;2022-12-18T12:49:46;99054.34;;;-7.24;100.00
71889;BME280;59762;49.998;14.858;2022-12-18T12:52:33;99060.94;;;-7.37;100.00
71889;BME280;59762;49.998;14.858;2022-12-18T12:55:02;99052.84;;;-7.50;100.00
71889;BME280;59762;49.998;14.858;2022-12-18T13:09:04;99074.22;;;-7.67;100.00
71889;BME280;59762;49.998;14.858;2022-12-18T13:14:22;99076.97;;;-7.49;100.00
71889;BME280;59762;49.998;14.858;2022-12-18T13:16:48;99083.72;;;-7.45;100.00
71889;BME280;59762;49.998;14.858;2022-12-18T13:19:23;99086.34;;;-7.25;100.00
71889;BME280;59762;49.998;14.858;2022-12-18T13:21:55;99089.44;;;-6.96;100.00
71889;BME280;59762;49.998;14.858;2022-12-18T13:24:27;99092.44;;;-6.85;100.00
71889;BME280;59762;49.998;14.858;2022-12-18T13:26:53;99089.75;;;-7.04;100.00
71889;BME280;59762;49.998;14.858;2022-12-18T13:29:44;99094.78;;;-6.99;100.00
71889;BME280;59762;49.998;14.858;2022-12-18T13:32:24;99095.47;;;-7.80;100.00
71889;BME280;59762;49.998;14.858;2022-12-18T13:37:53;99092.31;;;-7.89;100.00
71889;BME280;59762;49.998;14.858;2022-12-18T13:45:46;99069.44;;;-8.21;100.00
71889;BME280;59762;49.998;14.858;2022-12-18T13:48:18;99079.69;;;-8.18;100.00
71889;BME280;59762;49.998;14.858;2022-12-18T13:50:49;99078.44;;;-7.86;100.00
71889;BME280;59762;49.998;14.858;2022-12-18T13:53:21;99087.28;;;-7.48;100.00
71889;BME280;59762;49.998;14.858;2022-12-18T13:55:49;99089.50;;;-8.50;100.00
71889;BME280;59762;49.998;14.858;2022-12-18T13:58:14;99073.03;;;-8.25;100.00
71889;BME280;59762;49.998;14.858;2022-12-18T14:00:42;99072.66;;;-8.36;100.00
71889;BME280;59762;49.998;14.858;2022-12-18T14:03:23;99073.03;;;-8.47;100.00
71889;BME280;59762;49.998;14.858;2022-12-18T14:05:59;99081.63;;;-8.70;100.00
71889;BME280;59762;49.998;14.858;2022-12-18T14:08:32;99082.69;;;-8.76;100.00
71889;BME280;59762;49.998;14.858;2022-12-18T14:11:00;99080.78;;;-8.71;100.00
71889;BME280;59762;49.998;14.858;2022-12-18T14:13:28;99090.31;;;-8.73;100.00
71889;BME280;59762;49.998;14.858;2022-12-18T14:15:55;99098.94;;;-8.49;100.00